createdAt,value
2023-05-04T00:00:23.120Z,101476.00
2023-05-04T00:03:01.751Z,101471.00
2023-05-04T00:05:31.542Z,101473.00
2023-05-04T00:08:08.973Z,101462.00
2023-05-04T00:10:43.640Z,101461.00
2023-05-04T00:13:21.540Z,101468.00
2023-05-04T00:15:51.702Z,101465.00
2023-05-04T00:18:23.289Z,101470.00
2023-05-04T00:20:54.487Z,101472.00
2023-05-04T00:23:25.049Z,101466.00
2023-05-04T00:25:54.591Z,101461.00
2023-05-04T00:28:23.343Z,101458.00
2023-05-04T00:30:55.951Z,101461.00
2023-05-04T00:33:26.866Z,101462.00
2023-05-04T00:35:55.608Z,101463.00
2023-05-04T00:38:24.344Z,101467.00
2023-05-04T00:40:52.989Z,101466.00
2023-05-04T00:43:21.753Z,101462.00
2023-05-04T00:45:50.517Z,101461.00
2023-05-04T00:48:19.479Z,101466.00
2023-05-04T00:50:49.694Z,101461.00
2023-05-04T00:53:18.443Z,101471.00
2023-05-04T00:55:47.555Z,101475.00
2023-05-04T00:58:17.136Z,101468.00
2023-05-04T01:00:46.212Z,101475.00
2023-05-04T01:03:15.920Z,101470.00
2023-05-04T01:06:06.818Z,101457.00
2023-05-04T01:08:46.784Z,101468.00
2023-05-04T01:11:27.510Z,101470.00
2023-05-04T01:13:58.174Z,101463.00
2023-05-04T01:16:27.652Z,101463.00
2023-05-04T01:18:56.617Z,101467.00
2023-05-04T01:21:33.349Z,101454.00
2023-05-04T01:24:04.172Z,101460.00
2023-05-04T01:26:41.783Z,101459.00
2023-05-04T01:29:19.321Z,101457.00
2023-05-04T01:31:52.396Z,101455.00
2023-05-04T01:34:25.473Z,101456.00
2023-05-04T01:37:01.337Z,101457.00
2023-05-04T01:39:40.117Z,101451.00
2023-05-04T01:42:10.635Z,101456.00
2023-05-04T01:44:39.549Z,101451.00
2023-05-04T01:47:08.828Z,101462.00
2023-05-04T01:49:38.703Z,101458.00
2023-05-04T01:52:10.866Z,101468.00
2023-05-04T01:54:43.227Z,101462.00
2023-05-04T01:57:27.625Z,101462.00
2023-05-04T01:59:57.946Z,101471.00
2023-05-04T02:02:42.574Z,101465.00
2023-05-04T02:05:13.506Z,101460.00
2023-05-04T02:07:44.549Z,101471.00
2023-05-04T02:10:14.963Z,101461.00
2023-05-04T02:12:47.125Z,101464.00
2023-05-04T02:15:19.213Z,101464.00
2023-05-04T02:17:50.087Z,101466.00
2023-05-04T02:20:19.721Z,101470.00
2023-05-04T02:22:52.770Z,101478.00
2023-05-04T02:25:26.062Z,101469.00
2023-05-04T02:28:03.510Z,101478.00
2023-05-04T02:30:54.755Z,101482.00
2023-05-04T02:33:27.464Z,101483.00
2023-05-04T02:36:03.074Z,101479.00
2023-05-04T02:38:37.738Z,101488.00
2023-05-04T02:41:15.204Z,101482.00
2023-05-04T02:43:48.089Z,101488.00
2023-05-04T02:46:17.298Z,101481.00
2023-05-04T02:48:46.269Z,101490.00
2023-05-04T02:51:17.845Z,101475.00
2023-05-04T02:53:49.353Z,101478.00
2023-05-04T02:56:18.805Z,101469.00
2023-05-04T02:58:49.580Z,101480.00
2023-05-04T03:01:20.324Z,101467.00
2023-05-04T03:03:50.077Z,101475.00
2023-05-04T03:06:20.801Z,101474.00
2023-05-04T03:08:54.948Z,101474.00
2023-05-04T03:11:25.889Z,101472.00
2023-05-04T03:13:59.446Z,101477.00
2023-05-04T03:16:29.277Z,101474.00
2023-05-04T03:19:10.235Z,101473.00
2023-05-04T03:21:55.238Z,101477.00
2023-05-04T03:24:28.755Z,101469.00
2023-05-04T03:27:08.546Z,101470.00
2023-05-04T03:29:43.074Z,101466.00
2023-05-04T03:32:14.482Z,101468.00
2023-05-04T03:34:48.467Z,101480.00
2023-05-04T03:37:18.593Z,101481.00
2023-05-04T03:39:48.829Z,101483.00
2023-05-04T03:42:23.348Z,101487.00
2023-05-04T03:44:54.627Z,101486.00
2023-05-04T03:47:25.061Z,101468.00
2023-05-04T03:49:57.187Z,101485.00
2023-05-04T03:52:30.922Z,101481.00
2023-05-04T03:55:13.109Z,101491.00
2023-05-04T03:57:44.026Z,101489.00
2023-05-04T04:00:15.546Z,101481.00
2023-05-04T04:02:45.636Z,101488.00
2023-05-04T04:05:20.205Z,101485.00
2023-05-04T04:07:51.560Z,101484.00
2023-05-04T04:10:21.776Z,101494.00
2023-05-04T04:12:51.162Z,101493.00
2023-05-04T04:15:21.995Z,101499.00
2023-05-04T04:17:50.742Z,101500.00
2023-05-04T04:20:19.723Z,101502.00
2023-05-04T04:22:49.903Z,101502.00
2023-05-04T04:25:18.732Z,101500.00
2023-05-04T04:27:51.854Z,101494.00
2023-05-04T04:30:20.730Z,101496.00
2023-05-04T04:32:50.220Z,101494.00
2023-05-04T04:35:19.577Z,101505.00
2023-05-04T04:37:48.388Z,101508.00
2023-05-04T04:40:17.705Z,101503.00
2023-05-04T04:42:46.730Z,101511.00
2023-05-04T04:45:20.548Z,101508.00
2023-05-04T04:47:49.369Z,101515.00
2023-05-04T04:50:19.316Z,101507.00
2023-05-04T04:52:48.168Z,101504.00
2023-05-04T04:55:18.116Z,101499.00
2023-05-04T04:57:46.985Z,101497.00
2023-05-04T05:00:19.513Z,101504.00
2023-05-04T05:03:14.738Z,101498.00
2023-05-04T05:05:43.612Z,101494.00
2023-05-04T05:08:12.339Z,101503.00
2023-05-04T05:10:43.178Z,101494.00
2023-05-04T05:13:14.776Z,101501.00
2023-05-04T05:15:45.360Z,101506.00
2023-05-04T05:18:14.926Z,101506.00
2023-05-04T05:20:45.108Z,101498.00
2023-05-04T05:23:14.091Z,101499.00
2023-05-04T05:25:45.172Z,101506.00
2023-05-04T05:28:16.715Z,101493.00
2023-05-04T05:30:48.136Z,101512.00
2023-05-04T05:33:17.911Z,101509.00
2023-05-04T05:35:47.751Z,101506.00
2023-05-04T05:38:17.742Z,101507.00
2023-05-04T05:40:46.514Z,101511.00
2023-05-04T05:43:15.486Z,101525.00
2023-05-04T05:45:44.543Z,101514.00
2023-05-04T05:48:14.614Z,101518.00
2023-05-04T05:50:43.762Z,101521.00
2023-05-04T05:53:12.903Z,101525.00
2023-05-04T05:55:41.623Z,101522.00
2023-05-04T05:58:10.351Z,101524.00
2023-05-04T06:00:39.787Z,101532.00
2023-05-04T06:03:08.941Z,101529.00
2023-05-04T06:05:39.305Z,101537.00
2023-05-04T06:08:08.188Z,101540.00
2023-05-04T06:10:37.802Z,101535.00
2023-05-04T06:13:08.928Z,101531.00
2023-05-04T06:15:39.230Z,101535.00
2023-05-04T06:18:08.083Z,101548.00
2023-05-04T06:20:38.290Z,101540.00
2023-05-04T06:23:07.428Z,101542.00
2023-05-04T06:25:36.683Z,101530.00
2023-05-04T06:28:17.665Z,101559.00
2023-05-04T06:30:48.811Z,101553.00
2023-05-04T06:33:17.806Z,101574.00
2023-05-04T06:35:47.898Z,101543.00
2023-05-04T06:38:17.320Z,101567.00
2023-05-04T06:40:46.070Z,101566.00
2023-05-04T06:43:17.626Z,101559.00
2023-05-04T06:45:47.430Z,101560.00
2023-05-04T06:48:17.380Z,101571.00
2023-05-04T06:50:48.423Z,101577.00
2023-05-04T06:53:17.196Z,101571.00
2023-05-04T06:55:46.978Z,101566.00
2023-05-04T06:58:19.019Z,101568.00
2023-05-04T07:00:48.377Z,101573.00
2023-05-04T07:03:17.315Z,101580.00
2023-05-04T07:05:48.950Z,101575.00
2023-05-04T07:08:19.809Z,101581.00
2023-05-04T07:10:48.827Z,101589.00
2023-05-04T07:13:19.279Z,101583.00
2023-05-04T07:15:48.260Z,101597.00
2023-05-04T07:18:18.284Z,101593.00
2023-05-04T07:20:48.541Z,101599.00
2023-05-04T07:23:17.854Z,101584.00
2023-05-04T07:25:46.622Z,101597.00
2023-05-04T07:28:17.376Z,101587.00
2023-05-04T07:30:46.094Z,101593.00
2023-05-04T07:33:15.985Z,101581.00
2023-05-04T07:35:45.087Z,101594.00
2023-05-04T07:38:15.904Z,101583.00
2023-05-04T07:40:45.468Z,101609.00
2023-05-04T07:43:14.345Z,101608.00
2023-05-04T07:45:43.244Z,101619.00
2023-05-04T07:48:18.238Z,101606.00
2023-05-04T07:50:48.883Z,101603.00
2023-05-04T07:53:22.747Z,101598.00
2023-05-04T07:55:57.367Z,101617.00
2023-05-04T07:58:29.144Z,101594.00
2023-05-04T08:00:59.925Z,101597.00
2023-05-04T08:03:31.102Z,101620.00
2023-05-04T08:06:00.412Z,101616.00
2023-05-04T08:08:30.654Z,101599.00
2023-05-04T08:11:11.714Z,101598.00
2023-05-04T08:13:51.232Z,101634.00
2023-05-04T08:16:29.411Z,101609.00
2023-05-04T08:18:58.396Z,101647.00
2023-05-04T08:21:27.553Z,101602.00
2023-05-04T08:23:57.905Z,101642.00
2023-05-04T08:26:27.071Z,101607.00
2023-05-04T08:29:07.359Z,101650.00
2023-05-04T08:31:36.654Z,101619.00
2023-05-04T08:34:07.430Z,101625.00
2023-05-04T08:39:29.337Z,101659.00
2023-05-04T08:42:00.480Z,101667.00
2023-05-04T08:44:42.083Z,101609.00
2023-05-04T08:47:12.947Z,101626.00
2023-05-04T08:49:42.012Z,101682.00
2023-05-04T08:52:13.712Z,101656.00
2023-05-04T08:54:46.111Z,101647.00
2023-05-04T08:57:17.748Z,101669.00
2023-05-04T08:59:53.763Z,101682.00
2023-05-04T09:02:30.842Z,101677.00
2023-05-04T09:05:07.978Z,101664.00
2023-05-04T09:07:36.786Z,101699.00
2023-05-04T09:10:09.908Z,101668.00
2023-05-04T09:12:38.887Z,101679.00
2023-05-04T09:15:18.651Z,101689.00
2023-05-04T09:18:21.927Z,101707.00
2023-05-04T09:20:57.202Z,101658.00
2023-05-04T09:23:35.247Z,101668.00
2023-05-04T09:26:23.664Z,101676.00
2023-05-04T09:28:55.125Z,101677.00
2023-05-04T09:31:25.179Z,101693.00
2023-05-04T09:33:53.990Z,101680.00
2023-05-04T09:36:25.183Z,101689.00
2023-05-04T09:38:53.986Z,101687.00
2023-05-04T09:41:34.929Z,101683.00
2023-05-04T09:44:04.922Z,101716.00
2023-05-04T09:46:49.078Z,101713.00
2023-05-04T09:49:21.179Z,101735.00
2023-05-04T09:51:52.865Z,101729.00
2023-05-04T09:54:22.776Z,101725.00
2023-05-04T09:57:09.191Z,101742.00
2023-05-04T09:59:40.869Z,101698.00
2023-05-04T10:02:21.953Z,101699.00
2023-05-04T10:04:53.210Z,101714.00
2023-05-04T10:07:32.760Z,101693.00
2023-05-04T10:10:03.578Z,101741.00
2023-05-04T10:12:47.201Z,101728.00
2023-05-04T10:15:24.395Z,101749.00
2023-05-04T10:18:11.299Z,101744.00
2023-05-04T10:21:21.016Z,101750.00
2023-05-04T10:24:24.097Z,101753.00
2023-05-04T10:27:09.844Z,101736.00
2023-05-04T10:29:43.861Z,101752.00
2023-05-04T10:32:29.576Z,101760.00
2023-05-04T10:35:08.332Z,101763.00
2023-05-04T10:37:38.766Z,101762.00
2023-05-04T10:40:09.074Z,101727.00
2023-05-04T10:42:45.082Z,101765.00
2023-05-04T10:45:15.222Z,101740.00
2023-05-04T10:47:44.045Z,101753.00
2023-05-04T10:50:14.784Z,101764.00
2023-05-04T10:53:01.378Z,101772.00
2023-05-04T10:55:48.728Z,101773.00
2023-05-04T10:58:42.867Z,101778.00
2023-05-04T11:01:14.779Z,101774.00
2023-05-04T11:03:44.600Z,101796.00
2023-05-04T11:06:23.865Z,101757.00
2023-05-04T11:09:15.577Z,101774.00
2023-05-04T11:11:45.950Z,101787.00
2023-05-04T11:14:28.319Z,101791.00
2023-05-04T11:17:23.924Z,101776.00
2023-05-04T11:19:58.254Z,101774.00
2023-05-04T11:22:43.182Z,101758.00
2023-05-04T11:25:13.301Z,101788.00
2023-05-04T11:27:44.906Z,101783.00
2023-05-04T11:30:15.522Z,101782.00
2023-05-04T11:32:47.823Z,101776.00
2023-05-04T11:35:19.966Z,101787.00
2023-05-04T11:37:50.500Z,101792.00
2023-05-04T11:40:23.913Z,101803.00
2023-05-04T11:43:00.478Z,101802.00
2023-05-04T11:45:34.464Z,101816.00
2023-05-04T11:48:07.378Z,101801.00
2023-05-04T11:50:37.994Z,101829.00
2023-05-04T11:53:16.260Z,101802.00
2023-05-04T11:55:46.419Z,101818.00
2023-05-04T11:58:25.285Z,101821.00
2023-05-04T12:00:59.336Z,101799.00
2023-05-04T12:03:53.250Z,101825.00
2023-05-04T12:06:34.198Z,101823.00
2023-05-04T12:09:07.839Z,101815.00
2023-05-04T12:11:57.397Z,101814.00
2023-05-04T12:14:28.448Z,101805.00
2023-05-04T12:17:01.875Z,101844.00
2023-05-04T12:19:34.213Z,101815.00
2023-05-04T12:22:05.167Z,101830.00
2023-05-04T12:24:33.994Z,101805.00
2023-05-04T12:27:06.592Z,101826.00
2023-05-04T12:29:35.664Z,101813.00
2023-05-04T12:32:05.900Z,101818.00
2023-05-04T12:34:42.053Z,101844.00
2023-05-04T12:37:17.704Z,101834.00
2023-05-04T12:39:50.766Z,101835.00
2023-05-04T12:42:20.685Z,101842.00
2023-05-04T12:44:52.392Z,101854.00
2023-05-04T12:47:24.554Z,101839.00
2023-05-04T12:49:56.132Z,101809.00
2023-05-04T12:52:26.392Z,101841.00
2023-05-04T12:54:55.124Z,101838.00
2023-05-04T12:57:24.420Z,101854.00
2023-05-04T12:59:53.807Z,101821.00
2023-05-04T13:02:23.486Z,101835.00
2023-05-04T13:04:52.582Z,101827.00
2023-05-04T13:07:22.848Z,101824.00
2023-05-04T13:09:51.621Z,101843.00
2023-05-04T13:12:20.518Z,101820.00
2023-05-04T13:14:49.307Z,101829.00
2023-05-04T13:17:18.420Z,101840.00
2023-05-04T13:19:47.652Z,101851.00
2023-05-04T13:22:18.084Z,101833.00
2023-05-04T13:24:48.193Z,101847.00
2023-05-04T13:27:18.913Z,101843.00
2023-05-04T13:29:50.071Z,101846.00
2023-05-04T13:32:18.909Z,101857.00
2023-05-04T13:34:48.751Z,101876.00
2023-05-04T13:37:18.556Z,101879.00
2023-05-04T13:39:51.272Z,101870.00
2023-05-04T13:42:22.481Z,101863.00
2023-05-04T13:44:57.485Z,101860.00
2023-05-04T13:47:26.731Z,101872.00
2023-05-04T13:49:55.700Z,101873.00
2023-05-04T13:52:25.123Z,101860.00
2023-05-04T13:54:55.870Z,101854.00
2023-05-04T13:57:26.481Z,101876.00
2023-05-04T14:00:07.096Z,101839.00
2023-05-04T14:02:43.377Z,101842.00
2023-05-04T14:05:12.889Z,101852.00
2023-05-04T14:07:49.824Z,101882.00
2023-05-04T14:10:20.657Z,101872.00
2023-05-04T14:12:57.401Z,101859.00
2023-05-04T14:15:27.951Z,101864.00
2023-05-04T14:17:57.112Z,101857.00
2023-05-04T14:20:29.595Z,101860.00
2023-05-04T14:22:58.507Z,101858.00
2023-05-04T14:25:28.963Z,101861.00
2023-05-04T14:27:58.079Z,101854.00
2023-05-04T14:30:33.891Z,101806.00
2023-05-04T14:33:05.173Z,101879.00
2023-05-04T14:35:37.334Z,101870.00
2023-05-04T14:38:07.637Z,101876.00
2023-05-04T14:40:38.326Z,101859.00
2023-05-04T14:43:07.621Z,101869.00
2023-05-04T14:45:39.811Z,101881.00
2023-05-04T14:48:09.601Z,101859.00
2023-05-04T14:50:42.212Z,101892.00
2023-05-04T14:53:13.751Z,101863.00
2023-05-04T14:55:46.348Z,101860.00
2023-05-04T14:58:22.147Z,101872.00
2023-05-04T15:00:55.337Z,101874.00
2023-05-04T15:03:28.599Z,101858.00
2023-05-04T15:05:58.945Z,101837.00
2023-05-04T15:08:29.417Z,101838.00
2023-05-04T15:11:03.231Z,101848.00
2023-05-04T15:13:39.391Z,101871.00
2023-05-04T15:16:16.334Z,101856.00
2023-05-04T15:18:52.128Z,101884.00
2023-05-04T15:21:20.781Z,101877.00
2023-05-04T15:23:58.617Z,101875.00
2023-05-04T15:26:29.281Z,101845.00
2023-05-04T15:28:59.202Z,101858.00
2023-05-04T15:31:31.408Z,101857.00
2023-05-04T15:34:07.923Z,101859.00
2023-05-04T15:36:41.025Z,101856.00
2023-05-04T15:39:11.549Z,101861.00
2023-05-04T15:41:42.699Z,101862.00
2023-05-04T15:44:11.480Z,101865.00
2023-05-04T15:46:40.557Z,101864.00
2023-05-04T15:49:10.062Z,101872.00
2023-05-04T15:51:39.088Z,101857.00
2023-05-04T15:54:07.846Z,101852.00
2023-05-04T15:56:36.656Z,101853.00
2023-05-04T15:59:09.384Z,101859.00
2023-05-04T16:01:40.085Z,101862.00
2023-05-04T16:04:15.173Z,101884.00
2023-05-04T16:06:45.422Z,101861.00
2023-05-04T16:09:17.169Z,101859.00
2023-05-04T16:11:46.736Z,101854.00
2023-05-04T16:14:17.294Z,101831.00
2023-05-04T16:16:46.177Z,101857.00
2023-05-04T16:19:14.950Z,101850.00
2023-05-04T16:21:44.314Z,101865.00
2023-05-04T16:24:16.230Z,101853.00
2023-05-04T16:26:45.404Z,101870.00
2023-05-04T16:29:22.052Z,101860.00
2023-05-04T16:31:52.554Z,101878.00
2023-05-04T16:34:22.413Z,101843.00
2023-05-04T16:36:51.168Z,101865.00
2023-05-04T16:39:22.158Z,101854.00
2023-05-04T16:41:51.641Z,101863.00
2023-05-04T16:44:20.512Z,101858.00
2023-05-04T16:46:54.539Z,101848.00
2023-05-04T16:49:26.908Z,101848.00
2023-05-04T16:51:55.897Z,101827.00
2023-05-04T16:54:26.665Z,101853.00
2023-05-04T16:56:57.440Z,101852.00
2023-05-04T16:59:27.875Z,101859.00
2023-05-04T17:01:59.409Z,101852.00
2023-05-04T17:04:36.135Z,101843.00
2023-05-04T17:07:06.122Z,101852.00
2023-05-04T17:09:35.732Z,101837.00
2023-05-04T17:12:05.120Z,101839.00
2023-05-04T17:14:37.022Z,101826.00
2023-05-04T17:17:08.433Z,101846.00
2023-05-04T17:19:53.786Z,101843.00
2023-05-04T17:22:23.629Z,101854.00
2023-05-04T17:24:52.519Z,101842.00
2023-05-04T17:27:21.681Z,101837.00
2023-05-04T17:29:50.430Z,101835.00
2023-05-04T17:32:19.303Z,101849.00
2023-05-04T17:34:48.521Z,101854.00
2023-05-04T17:37:18.625Z,101874.00
2023-05-04T17:39:47.415Z,101860.00
2023-05-04T17:42:16.850Z,101872.00
2023-05-04T17:44:45.840Z,101873.00
2023-05-04T17:47:14.550Z,101863.00
2023-05-04T17:49:43.260Z,101860.00
2023-05-04T17:52:13.670Z,101850.00
2023-05-04T17:54:44.216Z,101848.00
2023-05-04T17:57:19.437Z,101860.00
2023-05-04T17:59:52.804Z,101860.00
2023-05-04T18:02:21.640Z,101855.00
2023-05-04T18:04:55.347Z,101844.00
2023-05-04T18:07:24.193Z,101853.00
2023-05-04T18:09:56.141Z,101857.00
2023-05-04T18:12:24.883Z,101850.00
2023-05-04T18:14:54.097Z,101869.00
2023-05-04T18:17:22.993Z,101859.00
2023-05-04T18:19:51.898Z,101865.00
2023-05-04T18:22:20.618Z,101861.00
2023-05-04T18:25:06.126Z,101856.00
2023-05-04T18:27:37.564Z,101857.00
2023-05-04T18:30:08.527Z,101860.00
2023-05-04T18:32:44.031Z,101875.00
2023-05-04T18:35:17.103Z,101871.00
2023-05-04T18:37:49.639Z,101861.00
2023-05-04T18:40:20.078Z,101864.00
2023-05-04T18:42:49.519Z,101851.00
2023-05-04T18:45:18.737Z,101845.00
2023-05-04T18:47:47.719Z,101850.00
2023-05-04T18:50:17.017Z,101842.00
2023-05-04T18:52:48.615Z,101845.00
2023-05-04T18:55:19.569Z,101847.00
2023-05-04T18:57:54.342Z,101850.00
2023-05-04T19:00:28.772Z,101849.00
2023-05-04T19:02:59.641Z,101857.00
2023-05-04T19:05:28.844Z,101840.00
2023-05-04T19:07:58.581Z,101850.00
2023-05-04T19:10:30.737Z,101846.00
2023-05-04T19:13:01.644Z,101829.00
2023-05-04T19:15:34.327Z,101826.00
2023-05-04T19:18:03.616Z,101834.00
2023-05-04T19:20:32.646Z,101836.00
2023-05-04T19:23:01.386Z,101835.00
2023-05-04T19:25:34.998Z,101835.00
2023-05-04T19:28:08.868Z,101839.00
2023-05-04T19:30:52.978Z,101837.00
2023-05-04T19:33:26.352Z,101829.00
2023-05-04T19:36:02.803Z,101834.00
2023-05-04T19:38:33.123Z,101827.00
2023-05-04T19:41:04.353Z,101835.00
2023-05-04T19:43:33.694Z,101838.00
2023-05-04T19:46:04.375Z,101829.00
2023-05-04T19:48:36.347Z,101833.00
2023-05-04T19:51:08.870Z,101832.00
2023-05-04T19:54:06.809Z,101834.00
2023-05-04T19:56:43.076Z,101834.00
2023-05-04T19:59:12.202Z,101841.00
2023-05-04T20:01:40.910Z,101841.00
2023-05-04T20:04:09.695Z,101834.00
2023-05-04T20:06:39.660Z,101833.00
2023-05-04T20:09:08.529Z,101826.00
2023-05-04T20:11:39.221Z,101835.00
2023-05-04T20:14:11.449Z,101836.00
2023-05-04T20:16:40.781Z,101835.00
2023-05-04T20:19:10.677Z,101822.00
2023-05-04T20:21:39.930Z,101827.00
2023-05-04T20:24:09.738Z,101847.00
2023-05-04T20:26:40.072Z,101836.00
2023-05-04T20:29:09.946Z,101842.00
2023-05-04T20:31:57.989Z,101839.00
2023-05-04T20:34:28.290Z,101834.00
2023-05-04T20:36:57.600Z,101833.00
2023-05-04T20:39:27.557Z,101837.00
2023-05-04T20:41:59.627Z,101837.00
2023-05-04T20:44:29.862Z,101836.00
2023-05-04T20:46:58.728Z,101834.00
2023-05-04T20:49:29.337Z,101831.00
2023-05-04T20:51:58.118Z,101832.00
2023-05-04T20:54:27.421Z,101840.00
2023-05-04T20:56:56.216Z,101842.00
2023-05-04T20:59:26.643Z,101827.00
2023-05-04T21:01:55.596Z,101835.00
2023-05-04T21:04:25.046Z,101841.00
2023-05-04T21:06:54.005Z,101836.00
2023-05-04T21:09:23.903Z,101846.00
2023-05-04T21:11:53.036Z,101820.00
2023-05-04T21:14:21.914Z,101843.00
2023-05-04T21:16:53.532Z,101840.00
2023-05-04T21:19:22.359Z,101826.00
2023-05-04T21:21:51.352Z,101839.00
2023-05-04T21:24:20.586Z,101840.00
2023-05-04T21:26:49.841Z,101840.00
2023-05-04T21:29:18.555Z,101837.00
2023-05-04T21:31:48.426Z,101846.00
2023-05-04T21:34:19.152Z,101841.00
2023-05-04T21:36:48.237Z,101841.00
2023-05-04T21:39:17.828Z,101835.00
2023-05-04T21:41:46.685Z,101837.00
2023-05-04T21:44:15.635Z,101839.00
2023-05-04T21:46:44.657Z,101846.00
2023-05-04T21:49:14.373Z,101844.00
2023-05-04T21:51:44.552Z,101851.00
2023-05-04T21:54:13.571Z,101840.00
2023-05-04T21:56:42.724Z,101845.00
2023-05-04T21:59:11.480Z,101851.00
2023-05-04T22:01:40.489Z,101843.00
2023-05-04T22:04:09.787Z,101843.00
2023-05-04T22:06:38.882Z,101844.00
2023-05-04T22:09:10.723Z,101838.00
2023-05-04T22:11:39.789Z,101844.00
2023-05-04T22:14:08.622Z,101855.00
2023-05-04T22:16:37.939Z,101849.00
2023-05-04T22:19:07.001Z,101852.00
2023-05-04T22:21:36.829Z,101849.00
2023-05-04T22:24:08.706Z,101847.00
2023-05-04T22:26:37.991Z,101847.00
2023-05-04T22:29:06.688Z,101846.00
2023-05-04T22:31:35.551Z,101849.00
2023-05-04T22:34:05.280Z,101846.00
2023-05-04T22:36:35.324Z,101835.00
2023-05-04T22:39:04.181Z,101839.00
2023-05-04T22:41:34.465Z,101851.00
2023-05-04T22:44:03.446Z,101845.00
2023-05-04T22:46:32.130Z,101849.00
2023-05-04T22:49:00.898Z,101844.00
2023-05-04T22:51:32.114Z,101849.00
2023-05-04T22:54:05.045Z,101848.00
2023-05-04T22:56:36.154Z,101847.00
2023-05-04T22:59:07.482Z,101850.00
2023-05-04T23:01:42.755Z,101847.00
2023-05-04T23:04:11.668Z,101848.00
2023-05-04T23:06:44.611Z,101838.00
2023-05-04T23:09:14.263Z,101843.00
2023-05-04T23:11:44.526Z,101844.00
2023-05-04T23:14:16.342Z,101849.00
2023-05-04T23:16:50.349Z,101847.00
2023-05-04T23:19:19.705Z,101843.00
2023-05-04T23:21:48.397Z,101848.00
2023-05-04T23:24:17.319Z,101855.00
2023-05-04T23:26:47.544Z,101856.00
2023-05-04T23:29:17.737Z,101842.00
2023-05-04T23:31:46.455Z,101850.00
2023-05-04T23:34:15.729Z,101857.00
2023-05-04T23:36:46.935Z,101855.00
2023-05-04T23:39:27.455Z,101849.00
2023-05-04T23:41:57.850Z,101859.00
2023-05-04T23:44:28.144Z,101857.00
2023-05-04T23:46:57.944Z,101853.00
2023-05-04T23:49:26.629Z,101857.00
2023-05-04T23:51:55.275Z,101850.00
2023-05-04T23:54:24.882Z,101850.00
2023-05-04T23:56:53.508Z,101847.00
2023-05-04T23:59:23.866Z,101860.00
